sensor_id;sensor_type;location;lat;lon;timestamp;P1;durP1;ratioP1;P2;durP2;ratioP2
4385;SDS011;2207;53.540;10.042;2022-08-19T00:00:18;22.10;;;15.40;;
4385;SDS011;2207;53.540;10.042;2022-08-19T00:02:46;18.63;;;15.50;;
4385;SDS011;2207;53.540;10.042;2022-08-19T00:05:13;18.80;;;13.30;;
4385;SDS011;2207;53.540;10.042;2022-08-19T00:07:41;19.23;;;15.10;;
4385;SDS011;2207;53.540;10.042;2022-08-19T00:10:09;17.10;;;14.20;;
4385;SDS011;2207;53.540;10.042;2022-08-19T00:12:37;18.67;;;14.97;;
4385;SDS011;2207;53.540;10.042;2022-08-19T00:15:05;21.70;;;15.93;;
4385;SDS011;2207;53.540;10.042;2022-08-19T00:17:39;17.00;;;13.63;;
4385;SDS011;2207;53.540;10.042;2022-08-19T00:20:06;19.23;;;13.10;;
4385;SDS011;2207;53.540;10.042;2022-08-19T00:22:35;20.37;;;14.10;;
4385;SDS011;2207;53.540;10.042;2022-08-19T00:25:03;19.13;;;14.00;;
4385;SDS011;2207;53.540;10.042;2022-08-19T00:27:31;25.00;;;14.83;;
4385;SDS011;2207;53.540;10.042;2022-08-19T00:29:58;18.33;;;14.50;;
4385;SDS011;2207;53.540;10.042;2022-08-19T00:32:25;20.07;;;16.93;;
4385;SDS011;2207;53.540;10.042;2022-08-19T00:34:53;25.20;;;18.60;;
4385;SDS011;2207;53.540;10.042;2022-08-19T00:37:20;23.87;;;17.27;;
4385;SDS011;2207;53.540;10.042;2022-08-19T00:39:51;22.47;;;16.63;;
4385;SDS011;2207;53.540;10.042;2022-08-19T00:42:19;21.20;;;16.93;;
4385;SDS011;2207;53.540;10.042;2022-08-19T00:44:47;20.30;;;16.23;;
4385;SDS011;2207;53.540;10.042;2022-08-19T00:47:15;26.23;;;19.27;;
4385;SDS011;2207;53.540;10.042;2022-08-19T00:49:43;24.00;;;17.90;;
4385;SDS011;2207;53.540;10.042;2022-08-19T00:52:18;24.47;;;18.90;;
4385;SDS011;2207;53.540;10.042;2022-08-19T00:54:47;28.17;;;18.90;;
4385;SDS011;2207;53.540;10.042;2022-08-19T00:57:17;33.63;;;20.80;;
4385;SDS011;2207;53.540;10.042;2022-08-19T00:59:51;27.60;;;19.40;;
4385;SDS011;2207;53.540;10.042;2022-08-19T01:02:20;32.53;;;19.97;;
4385;SDS011;2207;53.540;10.042;2022-08-19T01:04:47;36.10;;;21.40;;
4385;SDS011;2207;53.540;10.042;2022-08-19T01:07:14;27.13;;;19.90;;
4385;SDS011;2207;53.540;10.042;2022-08-19T01:09:42;31.77;;;20.37;;
4385;SDS011;2207;53.540;10.042;2022-08-19T01:12:09;29.43;;;22.67;;
4385;SDS011;2207;53.540;10.042;2022-08-19T01:14:37;32.43;;;21.23;;
4385;SDS011;2207;53.540;10.042;2022-08-19T01:17:06;30.20;;;20.37;;
4385;SDS011;2207;53.540;10.042;2022-08-19T01:19:35;30.17;;;21.60;;
4385;SDS011;2207;53.540;10.042;2022-08-19T01:22:06;27.63;;;19.33;;
4385;SDS011;2207;53.540;10.042;2022-08-19T01:24:44;26.80;;;21.40;;
4385;SDS011;2207;53.540;10.042;2022-08-19T01:27:11;27.70;;;21.03;;
4385;SDS011;2207;53.540;10.042;2022-08-19T01:29:38;32.83;;;21.73;;
4385;SDS011;2207;53.540;10.042;2022-08-19T01:32:07;30.67;;;21.70;;
4385;SDS011;2207;53.540;10.042;2022-08-19T01:34:34;34.67;;;22.07;;
4385;SDS011;2207;53.540;10.042;2022-08-19T01:37:05;29.63;;;20.00;;
4385;SDS011;2207;53.540;10.042;2022-08-19T01:39:36;30.97;;;20.37;;
4385;SDS011;2207;53.540;10.042;2022-08-19T01:42:05;31.10;;;19.00;;
4385;SDS011;2207;53.540;10.042;2022-08-19T01:44:36;27.10;;;21.50;;
4385;SDS011;2207;53.540;10.042;2022-08-19T01:47:03;28.37;;;19.37;;
4385;SDS011;2207;53.540;10.042;2022-08-19T01:49:31;30.27;;;20.00;;
4385;SDS011;2207;53.540;10.042;2022-08-19T01:51:59;21.17;;;16.80;;
4385;SDS011;2207;53.540;10.042;2022-08-19T01:54:27;27.47;;;18.93;;
4385;SDS011;2207;53.540;10.042;2022-08-19T01:56:57;24.27;;;17.10;;
4385;SDS011;2207;53.540;10.042;2022-08-19T01:59:28;23.23;;;17.27;;
4385;SDS011;2207;53.540;10.042;2022-08-19T02:01:56;27.70;;;17.40;;
4385;SDS011;2207;53.540;10.042;2022-08-19T02:04:23;28.17;;;19.23;;
4385;SDS011;2207;53.540;10.042;2022-08-19T02:06:50;25.80;;;17.43;;
4385;SDS011;2207;53.540;10.042;2022-08-19T02:09:17;31.07;;;18.67;;
4385;SDS011;2207;53.540;10.042;2022-08-19T02:11:44;26.23;;;18.30;;
4385;SDS011;2207;53.540;10.042;2022-08-19T02:14:11;23.27;;;17.13;;
4385;SDS011;2207;53.540;10.042;2022-08-19T02:16:40;24.67;;;17.30;;
4385;SDS011;2207;53.540;10.042;2022-08-19T02:19:07;25.73;;;18.43;;
4385;SDS011;2207;53.540;10.042;2022-08-19T02:21:35;26.77;;;20.10;;
4385;SDS011;2207;53.540;10.042;2022-08-19T02:24:02;26.93;;;18.70;;
4385;SDS011;2207;53.540;10.042;2022-08-19T02:26:30;28.07;;;18.17;;
4385;SDS011;2207;53.540;10.042;2022-08-19T02:28:58;29.90;;;16.23;;
4385;SDS011;2207;53.540;10.042;2022-08-19T02:31:26;27.00;;;18.97;;
4385;SDS011;2207;53.540;10.042;2022-08-19T02:33:55;24.03;;;17.83;;
4385;SDS011;2207;53.540;10.042;2022-08-19T02:36:23;30.47;;;20.33;;
4385;SDS011;2207;53.540;10.042;2022-08-19T02:38:52;26.13;;;18.20;;
4385;SDS011;2207;53.540;10.042;2022-08-19T02:41:19;34.37;;;22.10;;
4385;SDS011;2207;53.540;10.042;2022-08-19T02:43:48;27.63;;;19.97;;
4385;SDS011;2207;53.540;10.042;2022-08-19T02:46:16;33.10;;;19.80;;
4385;SDS011;2207;53.540;10.042;2022-08-19T02:48:46;29.73;;;20.17;;
4385;SDS011;2207;53.540;10.042;2022-08-19T02:51:20;32.53;;;20.60;;
4385;SDS011;2207;53.540;10.042;2022-08-19T02:53:48;29.40;;;19.37;;
4385;SDS011;2207;53.540;10.042;2022-08-19T02:56:15;28.53;;;18.57;;
4385;SDS011;2207;53.540;10.042;2022-08-19T02:58:42;28.17;;;20.00;;
4385;SDS011;2207;53.540;10.042;2022-08-19T03:01:10;32.73;;;19.83;;
4385;SDS011;2207;53.540;10.042;2022-08-19T03:03:37;29.67;;;20.13;;
4385;SDS011;2207;53.540;10.042;2022-08-19T03:06:06;33.27;;;21.70;;
4385;SDS011;2207;53.540;10.042;2022-08-19T03:08:36;32.03;;;16.77;;
4385;SDS011;2207;53.540;10.042;2022-08-19T03:11:04;27.90;;;18.33;;
4385;SDS011;2207;53.540;10.042;2022-08-19T03:13:31;34.43;;;20.20;;
4385;SDS011;2207;53.540;10.042;2022-08-19T03:15:58;25.80;;;17.10;;
4385;SDS011;2207;53.540;10.042;2022-08-19T03:18:25;40.73;;;20.47;;
4385;SDS011;2207;53.540;10.042;2022-08-19T03:20:52;38.10;;;19.73;;
4385;SDS011;2207;53.540;10.042;2022-08-19T03:23:19;36.17;;;19.57;;
4385;SDS011;2207;53.540;10.042;2022-08-19T03:25:50;37.93;;;20.70;;
4385;SDS011;2207;53.540;10.042;2022-08-19T03:28:19;43.27;;;21.77;;
4385;SDS011;2207;53.540;10.042;2022-08-19T03:30:54;47.10;;;22.50;;
4385;SDS011;2207;53.540;10.042;2022-08-19T03:33:27;48.97;;;25.13;;
4385;SDS011;2207;53.540;10.042;2022-08-19T03:36:03;51.50;;;28.40;;
4385;SDS011;2207;53.540;10.042;2022-08-19T03:38:35;45.27;;;23.40;;
4385;SDS011;2207;53.540;10.042;2022-08-19T03:41:04;51.50;;;25.50;;
4385;SDS011;2207;53.540;10.042;2022-08-19T03:43:33;51.30;;;27.50;;
4385;SDS011;2207;53.540;10.042;2022-08-19T03:46:01;50.67;;;28.17;;
4385;SDS011;2207;53.540;10.042;2022-08-19T03:48:30;58.80;;;26.70;;
4385;SDS011;2207;53.540;10.042;2022-08-19T03:50:58;53.47;;;26.87;;
4385;SDS011;2207;53.540;10.042;2022-08-19T03:53:26;43.03;;;24.60;;
4385;SDS011;2207;53.540;10.042;2022-08-19T03:55:53;43.23;;;25.47;;
4385;SDS011;2207;53.540;10.042;2022-08-19T03:58:22;51.57;;;25.73;;
4385;SDS011;2207;53.540;10.042;2022-08-19T04:00:50;50.53;;;26.70;;
4385;SDS011;2207;53.540;10.042;2022-08-19T04:03:17;43.60;;;22.40;;
4385;SDS011;2207;53.540;10.042;2022-08-19T04:05:45;45.20;;;24.23;;
4385;SDS011;2207;53.540;10.042;2022-08-19T04:08:12;50.07;;;22.30;;
4385;SDS011;2207;53.540;10.042;2022-08-19T04:10:45;39.13;;;20.20;;
4385;SDS011;2207;53.540;10.042;2022-08-19T04:13:13;49.63;;;23.87;;
4385;SDS011;2207;53.540;10.042;2022-08-19T04:15:43;38.80;;;22.40;;
4385;SDS011;2207;53.540;10.042;2022-08-19T04:18:11;37.80;;;22.20;;
4385;SDS011;2207;53.540;10.042;2022-08-19T04:20:40;39.70;;;22.03;;
4385;SDS011;2207;53.540;10.042;2022-08-19T04:23:09;35.03;;;21.03;;
4385;SDS011;2207;53.540;10.042;2022-08-19T04:25:37;31.00;;;18.77;;
4385;SDS011;2207;53.540;10.042;2022-08-19T04:28:05;38.37;;;19.37;;
4385;SDS011;2207;53.540;10.042;2022-08-19T04:30:38;32.30;;;18.67;;
4385;SDS011;2207;53.540;10.042;2022-08-19T04:33:07;37.13;;;20.57;;
4385;SDS011;2207;53.540;10.042;2022-08-19T04:35:36;37.23;;;21.60;;
4385;SDS011;2207;53.540;10.042;2022-08-19T04:38:04;36.13;;;21.47;;
4385;SDS011;2207;53.540;10.042;2022-08-19T04:40:31;43.00;;;21.83;;
4385;SDS011;2207;53.540;10.042;2022-08-19T04:43:16;46.43;;;24.80;;
4385;SDS011;2207;53.540;10.042;2022-08-19T04:45:43;43.10;;;24.60;;
4385;SDS011;2207;53.540;10.042;2022-08-19T04:48:12;42.77;;;24.33;;
4385;SDS011;2207;53.540;10.042;2022-08-19T04:50:40;42.17;;;23.90;;
4385;SDS011;2207;53.540;10.042;2022-08-19T04:53:09;40.83;;;24.63;;
4385;SDS011;2207;53.540;10.042;2022-08-19T04:55:39;48.27;;;24.20;;
4385;SDS011;2207;53.540;10.042;2022-08-19T04:58:07;41.73;;;25.20;;
4385;SDS011;2207;53.540;10.042;2022-08-19T05:00:37;41.27;;;23.67;;
4385;SDS011;2207;53.540;10.042;2022-08-19T05:03:04;53.23;;;25.50;;
4385;SDS011;2207;53.540;10.042;2022-08-19T05:05:39;45.77;;;24.17;;
4385;SDS011;2207;53.540;10.042;2022-08-19T05:08:09;38.43;;;22.07;;
4385;SDS011;2207;53.540;10.042;2022-08-19T05:10:43;45.20;;;24.87;;
4385;SDS011;2207;53.540;10.042;2022-08-19T05:13:10;38.43;;;24.70;;
4385;SDS011;2207;53.540;10.042;2022-08-19T05:15:37;37.33;;;23.77;;
4385;SDS011;2207;53.540;10.042;2022-08-19T05:18:05;36.40;;;21.00;;
4385;SDS011;2207;53.540;10.042;2022-08-19T05:20:51;44.97;;;23.77;;
4385;SDS011;2207;53.540;10.042;2022-08-19T05:23:32;42.17;;;23.27;;
4385;SDS011;2207;53.540;10.042;2022-08-19T05:26:00;40.43;;;23.87;;
4385;SDS011;2207;53.540;10.042;2022-08-19T05:28:28;38.63;;;23.30;;
4385;SDS011;2207;53.540;10.042;2022-08-19T05:30:55;37.03;;;23.80;;
4385;SDS011;2207;53.540;10.042;2022-08-19T05:33:23;34.63;;;21.57;;
4385;SDS011;2207;53.540;10.042;2022-08-19T05:35:54;36.77;;;23.77;;
4385;SDS011;2207;53.540;10.042;2022-08-19T05:38:22;35.63;;;24.73;;
4385;SDS011;2207;53.540;10.042;2022-08-19T05:40:51;41.87;;;22.53;;
4385;SDS011;2207;53.540;10.042;2022-08-19T05:43:19;42.30;;;24.10;;
4385;SDS011;2207;53.540;10.042;2022-08-19T05:45:46;35.00;;;21.90;;
4385;SDS011;2207;53.540;10.042;2022-08-19T05:48:15;41.17;;;24.43;;
4385;SDS011;2207;53.540;10.042;2022-08-19T05:50:45;37.70;;;22.40;;
4385;SDS011;2207;53.540;10.042;2022-08-19T05:53:18;39.37;;;23.43;;
4385;SDS011;2207;53.540;10.042;2022-08-19T05:55:47;37.07;;;22.17;;
4385;SDS011;2207;53.540;10.042;2022-08-19T05:58:16;50.07;;;25.60;;
4385;SDS011;2207;53.540;10.042;2022-08-19T06:00:44;38.80;;;22.07;;
4385;SDS011;2207;53.540;10.042;2022-08-19T06:03:12;40.13;;;24.90;;
4385;SDS011;2207;53.540;10.042;2022-08-19T06:05:40;40.63;;;23.77;;
4385;SDS011;2207;53.540;10.042;2022-08-19T06:08:09;40.47;;;23.13;;
4385;SDS011;2207;53.540;10.042;2022-08-19T06:10:39;37.20;;;23.07;;
4385;SDS011;2207;53.540;10.042;2022-08-19T06:13:08;35.90;;;22.30;;
4385;SDS011;2207;53.540;10.042;2022-08-19T06:15:36;38.93;;;23.20;;
4385;SDS011;2207;53.540;10.042;2022-08-19T06:18:04;38.33;;;25.67;;
4385;SDS011;2207;53.540;10.042;2022-08-19T06:20:35;51.47;;;23.80;;
4385;SDS011;2207;53.540;10.042;2022-08-19T06:23:05;41.70;;;25.70;;
4385;SDS011;2207;53.540;10.042;2022-08-19T06:25:34;38.73;;;23.67;;
4385;SDS011;2207;53.540;10.042;2022-08-19T06:28:04;38.50;;;24.37;;
4385;SDS011;2207;53.540;10.042;2022-08-19T06:30:32;34.70;;;23.07;;
4385;SDS011;2207;53.540;10.042;2022-08-19T06:33:00;37.60;;;24.70;;
4385;SDS011;2207;53.540;10.042;2022-08-19T06:35:29;31.63;;;23.70;;
4385;SDS011;2207;53.540;10.042;2022-08-19T06:37:57;39.13;;;23.83;;
4385;SDS011;2207;53.540;10.042;2022-08-19T06:40:25;42.97;;;24.43;;
4385;SDS011;2207;53.540;10.042;2022-08-19T06:42:56;40.73;;;24.80;;
4385;SDS011;2207;53.540;10.042;2022-08-19T06:45:28;44.73;;;27.83;;
4385;SDS011;2207;53.540;10.042;2022-08-19T06:47:57;38.00;;;25.70;;
4385;SDS011;2207;53.540;10.042;2022-08-19T06:50:24;43.87;;;28.27;;
4385;SDS011;2207;53.540;10.042;2022-08-19T06:52:52;43.80;;;26.17;;
4385;SDS011;2207;53.540;10.042;2022-08-19T06:55:21;37.37;;;23.93;;
4385;SDS011;2207;53.540;10.042;2022-08-19T06:57:54;45.50;;;24.80;;
4385;SDS011;2207;53.540;10.042;2022-08-19T07:00:21;44.90;;;25.87;;
4385;SDS011;2207;53.540;10.042;2022-08-19T07:02:50;40.60;;;26.20;;
4385;SDS011;2207;53.540;10.042;2022-08-19T07:05:20;36.37;;;23.97;;
4385;SDS011;2207;53.540;10.042;2022-08-19T07:07:51;40.63;;;23.23;;
4385;SDS011;2207;53.540;10.042;2022-08-19T07:10:18;37.13;;;22.57;;
4385;SDS011;2207;53.540;10.042;2022-08-19T07:12:46;39.73;;;23.70;;
4385;SDS011;2207;53.540;10.042;2022-08-19T07:15:15;48.77;;;22.73;;
4385;SDS011;2207;53.540;10.042;2022-08-19T07:17:43;37.10;;;23.33;;
4385;SDS011;2207;53.540;10.042;2022-08-19T07:20:14;35.93;;;21.53;;
4385;SDS011;2207;53.540;10.042;2022-08-19T07:22:44;35.77;;;21.77;;
4385;SDS011;2207;53.540;10.042;2022-08-19T07:25:12;48.47;;;22.90;;
4385;SDS011;2207;53.540;10.042;2022-08-19T07:27:42;34.40;;;20.23;;
4385;SDS011;2207;53.540;10.042;2022-08-19T07:30:12;36.47;;;21.20;;
4385;SDS011;2207;53.540;10.042;2022-08-19T07:32:42;41.47;;;19.50;;
4385;SDS011;2207;53.540;10.042;2022-08-19T07:35:17;34.43;;;20.53;;
4385;SDS011;2207;53.540;10.042;2022-08-19T07:37:51;30.00;;;19.17;;
4385;SDS011;2207;53.540;10.042;2022-08-19T07:40:22;29.70;;;18.63;;
4385;SDS011;2207;53.540;10.042;2022-08-19T07:42:54;29.47;;;17.70;;
4385;SDS011;2207;53.540;10.042;2022-08-19T07:45:32;28.00;;;18.33;;
4385;SDS011;2207;53.540;10.042;2022-08-19T07:48:02;25.80;;;16.60;;
4385;SDS011;2207;53.540;10.042;2022-08-19T07:50:39;25.50;;;17.50;;
4385;SDS011;2207;53.540;10.042;2022-08-19T07:53:12;26.00;;;16.70;;
4385;SDS011;2207;53.540;10.042;2022-08-19T07:55:52;23.50;;;17.60;;
4385;SDS011;2207;53.540;10.042;2022-08-19T07:58:37;22.50;;;15.53;;
4385;SDS011;2207;53.540;10.042;2022-08-19T08:01:12;22.30;;;15.40;;
4385;SDS011;2207;53.540;10.042;2022-08-19T08:03:52;21.63;;;14.37;;
4385;SDS011;2207;53.540;10.042;2022-08-19T08:06:41;23.63;;;15.07;;
4385;SDS011;2207;53.540;10.042;2022-08-19T08:09:29;21.83;;;13.63;;
4385;SDS011;2207;53.540;10.042;2022-08-19T08:12:01;22.07;;;16.00;;
4385;SDS011;2207;53.540;10.042;2022-08-19T08:14:33;21.13;;;15.20;;
4385;SDS011;2207;53.540;10.042;2022-08-19T08:17:05;20.03;;;16.27;;
4385;SDS011;2207;53.540;10.042;2022-08-19T08:19:38;20.87;;;14.00;;
4385;SDS011;2207;53.540;10.042;2022-08-19T08:22:15;21.10;;;14.10;;
4385;SDS011;2207;53.540;10.042;2022-08-19T08:25:05;21.03;;;13.30;;
4385;SDS011;2207;53.540;10.042;2022-08-19T08:27:39;20.90;;;13.40;;
4385;SDS011;2207;53.540;10.042;2022-08-19T08:30:14;15.40;;;11.93;;
4385;SDS011;2207;53.540;10.042;2022-08-19T08:32:45;18.40;;;13.17;;
4385;SDS011;2207;53.540;10.042;2022-08-19T08:35:14;27.67;;;17.33;;
4385;SDS011;2207;53.540;10.042;2022-08-19T08:37:50;28.63;;;14.87;;
4385;SDS011;2207;53.540;10.042;2022-08-19T08:40:33;25.40;;;16.77;;
4385;SDS011;2207;53.540;10.042;2022-08-19T08:43:07;25.33;;;15.50;;
4385;SDS011;2207;53.540;10.042;2022-08-19T08:45:43;22.20;;;14.53;;
4385;SDS011;2207;53.540;10.042;2022-08-19T08:48:22;23.93;;;14.47;;
4385;SDS011;2207;53.540;10.042;2022-08-19T08:50:58;24.77;;;14.77;;
4385;SDS011;2207;53.540;10.042;2022-08-19T08:53:37;18.70;;;13.40;;
4385;SDS011;2207;53.540;10.042;2022-08-19T08:56:09;22.00;;;15.07;;
4385;SDS011;2207;53.540;10.042;2022-08-19T08:58:42;25.20;;;16.00;;
4385;SDS011;2207;53.540;10.042;2022-08-19T09:01:17;20.70;;;14.47;;
4385;SDS011;2207;53.540;10.042;2022-08-19T09:03:51;23.03;;;15.07;;
4385;SDS011;2207;53.540;10.042;2022-08-19T09:06:24;31.27;;;16.70;;
4385;SDS011;2207;53.540;10.042;2022-08-19T09:08:59;21.57;;;14.43;;
4385;SDS011;2207;53.540;10.042;2022-08-19T09:11:34;23.33;;;15.97;;
4385;SDS011;2207;53.540;10.042;2022-08-19T09:14:18;29.80;;;16.50;;
4385;SDS011;2207;53.540;10.042;2022-08-19T09:17:05;25.33;;;15.13;;
4385;SDS011;2207;53.540;10.042;2022-08-19T09:19:51;23.77;;;16.00;;
4385;SDS011;2207;53.540;10.042;2022-08-19T09:22:24;24.37;;;16.13;;
4385;SDS011;2207;53.540;10.042;2022-08-19T09:25:09;34.80;;;17.00;;
4385;SDS011;2207;53.540;10.042;2022-08-19T09:27:43;27.53;;;17.57;;
4385;SDS011;2207;53.540;10.042;2022-08-19T09:30:16;27.57;;;16.77;;
4385;SDS011;2207;53.540;10.042;2022-08-19T09:32:47;24.20;;;15.70;;
4385;SDS011;2207;53.540;10.042;2022-08-19T09:35:18;23.93;;;15.73;;
4385;SDS011;2207;53.540;10.042;2022-08-19T09:37:48;30.20;;;16.90;;
4385;SDS011;2207;53.540;10.042;2022-08-19T09:40:20;28.60;;;16.93;;
4385;SDS011;2207;53.540;10.042;2022-08-19T09:42:51;22.87;;;16.00;;
4385;SDS011;2207;53.540;10.042;2022-08-19T09:45:23;28.70;;;16.30;;
4385;SDS011;2207;53.540;10.042;2022-08-19T09:47:57;23.43;;;16.03;;
4385;SDS011;2207;53.540;10.042;2022-08-19T09:50:25;25.87;;;16.17;;
4385;SDS011;2207;53.540;10.042;2022-08-19T09:52:54;27.73;;;15.67;;
4385;SDS011;2207;53.540;10.042;2022-08-19T09:55:23;31.53;;;17.27;;
4385;SDS011;2207;53.540;10.042;2022-08-19T09:57:53;31.73;;;17.10;;
4385;SDS011;2207;53.540;10.042;2022-08-19T10:00:21;21.63;;;15.13;;
4385;SDS011;2207;53.540;10.042;2022-08-19T10:05:19;26.33;;;15.50;;
4385;SDS011;2207;53.540;10.042;2022-08-19T10:08:05;19.67;;;14.63;;
4385;SDS011;2207;53.540;10.042;2022-08-19T10:10:36;22.50;;;14.43;;
4385;SDS011;2207;53.540;10.042;2022-08-19T10:13:04;18.97;;;13.37;;
4385;SDS011;2207;53.540;10.042;2022-08-19T10:15:31;19.63;;;13.67;;
4385;SDS011;2207;53.540;10.042;2022-08-19T10:23:01;21.37;;;15.70;;
4385;SDS011;2207;53.540;10.042;2022-08-19T10:25:31;17.30;;;13.50;;
4385;SDS011;2207;53.540;10.042;2022-08-19T10:28:03;18.90;;;12.70;;
4385;SDS011;2207;53.540;10.042;2022-08-19T10:30:35;25.43;;;13.47;;
4385;SDS011;2207;53.540;10.042;2022-08-19T10:33:07;19.70;;;14.70;;
4385;SDS011;2207;53.540;10.042;2022-08-19T10:35:40;22.30;;;14.50;;
4385;SDS011;2207;53.540;10.042;2022-08-19T10:38:08;22.00;;;13.87;;
4385;SDS011;2207;53.540;10.042;2022-08-19T10:40:36;25.90;;;14.57;;
4385;SDS011;2207;53.540;10.042;2022-08-19T10:43:07;30.27;;;16.93;;
4385;SDS011;2207;53.540;10.042;2022-08-19T10:45:35;21.63;;;14.17;;
4385;SDS011;2207;53.540;10.042;2022-08-19T10:48:04;33.17;;;15.67;;
4385;SDS011;2207;53.540;10.042;2022-08-19T10:50:33;26.60;;;16.30;;
4385;SDS011;2207;53.540;10.042;2022-08-19T10:53:20;21.77;;;15.47;;
4385;SDS011;2207;53.540;10.042;2022-08-19T10:55:52;23.37;;;17.60;;
4385;SDS011;2207;53.540;10.042;2022-08-19T10:58:39;27.27;;;17.03;;
4385;SDS011;2207;53.540;10.042;2022-08-19T11:01:09;20.97;;;15.00;;
4385;SDS011;2207;53.540;10.042;2022-08-19T11:03:36;32.70;;;16.30;;
4385;SDS011;2207;53.540;10.042;2022-08-19T11:06:06;24.03;;;15.87;;
4385;SDS011;2207;53.540;10.042;2022-08-19T11:08:35;21.73;;;15.20;;
4385;SDS011;2207;53.540;10.042;2022-08-19T11:11:05;23.43;;;15.53;;
4385;SDS011;2207;53.540;10.042;2022-08-19T11:13:35;17.60;;;13.70;;
4385;SDS011;2207;53.540;10.042;2022-08-19T11:16:06;26.83;;;16.77;;
4385;SDS011;2207;53.540;10.042;2022-08-19T11:18:39;23.33;;;15.67;;
4385;SDS011;2207;53.540;10.042;2022-08-19T11:21:13;17.77;;;15.07;;
4385;SDS011;2207;53.540;10.042;2022-08-19T11:23:44;21.50;;;14.90;;
4385;SDS011;2207;53.540;10.042;2022-08-19T11:26:15;18.00;;;14.63;;
4385;SDS011;2207;53.540;10.042;2022-08-19T11:28:47;19.13;;;15.87;;
4385;SDS011;2207;53.540;10.042;2022-08-19T11:31:24;22.57;;;16.23;;
4385;SDS011;2207;53.540;10.042;2022-08-19T11:34:05;19.43;;;13.37;;
4385;SDS011;2207;53.540;10.042;2022-08-19T11:36:37;18.17;;;14.27;;
4385;SDS011;2207;53.540;10.042;2022-08-19T11:39:09;24.83;;;15.17;;
4385;SDS011;2207;53.540;10.042;2022-08-19T11:41:39;21.93;;;16.70;;
4385;SDS011;2207;53.540;10.042;2022-08-19T11:44:08;22.80;;;14.60;;
4385;SDS011;2207;53.540;10.042;2022-08-19T11:46:42;34.87;;;16.47;;
4385;SDS011;2207;53.540;10.042;2022-08-19T11:49:12;18.80;;;14.87;;
4385;SDS011;2207;53.540;10.042;2022-08-19T11:51:43;15.73;;;13.07;;
4385;SDS011;2207;53.540;10.042;2022-08-19T11:54:11;19.90;;;14.30;;
4385;SDS011;2207;53.540;10.042;2022-08-19T11:56:42;17.40;;;13.17;;
4385;SDS011;2207;53.540;10.042;2022-08-19T11:59:11;15.40;;;12.70;;
4385;SDS011;2207;53.540;10.042;2022-08-19T12:01:43;19.10;;;13.90;;
4385;SDS011;2207;53.540;10.042;2022-08-19T12:04:11;20.03;;;13.20;;
4385;SDS011;2207;53.540;10.042;2022-08-19T12:06:39;16.53;;;13.70;;
4385;SDS011;2207;53.540;10.042;2022-08-19T12:09:13;16.47;;;12.27;;
4385;SDS011;2207;53.540;10.042;2022-08-19T12:11:41;15.00;;;13.07;;
4385;SDS011;2207;53.540;10.042;2022-08-19T12:14:11;17.43;;;12.07;;
4385;SDS011;2207;53.540;10.042;2022-08-19T12:16:49;15.90;;;11.70;;
4385;SDS011;2207;53.540;10.042;2022-08-19T12:19:25;17.20;;;11.37;;
4385;SDS011;2207;53.540;10.042;2022-08-19T12:21:54;13.67;;;11.80;;
4385;SDS011;2207;53.540;10.042;2022-08-19T12:24:26;17.93;;;12.20;;
4385;SDS011;2207;53.540;10.042;2022-08-19T12:26:54;17.30;;;11.83;;
4385;SDS011;2207;53.540;10.042;2022-08-19T12:29:23;14.80;;;12.13;;
4385;SDS011;2207;53.540;10.042;2022-08-19T12:31:56;15.60;;;11.93;;
4385;SDS011;2207;53.540;10.042;2022-08-19T12:34:26;12.73;;;11.43;;
4385;SDS011;2207;53.540;10.042;2022-08-19T12:36:56;19.37;;;12.10;;
4385;SDS011;2207;53.540;10.042;2022-08-19T12:39:23;13.90;;;11.47;;
4385;SDS011;2207;53.540;10.042;2022-08-19T12:41:51;14.20;;;12.70;;
4385;SDS011;2207;53.540;10.042;2022-08-19T12:44:18;14.27;;;11.00;;
4385;SDS011;2207;53.540;10.042;2022-08-19T12:46:46;14.83;;;12.03;;
4385;SDS011;2207;53.540;10.042;2022-08-19T12:49:18;14.70;;;11.33;;
4385;SDS011;2207;53.540;10.042;2022-08-19T12:51:45;13.30;;;10.83;;
4385;SDS011;2207;53.540;10.042;2022-08-19T12:54:14;13.73;;;10.73;;
4385;SDS011;2207;53.540;10.042;2022-08-19T12:56:41;17.07;;;12.40;;
4385;SDS011;2207;53.540;10.042;2022-08-19T12:59:09;11.83;;;10.63;;
4385;SDS011;2207;53.540;10.042;2022-08-19T13:01:38;11.77;;;10.60;;
4385;SDS011;2207;53.540;10.042;2022-08-19T13:04:07;16.00;;;11.47;;
4385;SDS011;2207;53.540;10.042;2022-08-19T13:06:37;11.20;;;9.63;;
4385;SDS011;2207;53.540;10.042;2022-08-19T13:09:04;14.20;;;9.83;;
4385;SDS011;2207;53.540;10.042;2022-08-19T13:11:32;26.07;;;12.53;;
4385;SDS011;2207;53.540;10.042;2022-08-19T13:13:59;10.87;;;9.73;;
4385;SDS011;2207;53.540;10.042;2022-08-19T13:16:28;11.57;;;10.37;;
4385;SDS011;2207;53.540;10.042;2022-08-19T13:18:56;11.17;;;10.00;;
4385;SDS011;2207;53.540;10.042;2022-08-19T13:21:24;10.10;;;9.10;;
4385;SDS011;2207;53.540;10.042;2022-08-19T13:23:56;10.70;;;9.30;;
4385;SDS011;2207;53.540;10.042;2022-08-19T13:26:24;11.27;;;10.07;;
4385;SDS011;2207;53.540;10.042;2022-08-19T13:28:51;12.10;;;9.77;;
4385;SDS011;2207;53.540;10.042;2022-08-19T13:31:40;14.27;;;9.70;;
4385;SDS011;2207;53.540;10.042;2022-08-19T13:34:26;10.97;;;9.80;;
4385;SDS011;2207;53.540;10.042;2022-08-19T13:36:56;12.13;;;10.90;;
4385;SDS011;2207;53.540;10.042;2022-08-19T13:39:24;13.93;;;10.30;;
4385;SDS011;2207;53.540;10.042;2022-08-19T13:41:52;12.00;;;10.83;;
4385;SDS011;2207;53.540;10.042;2022-08-19T13:44:20;12.90;;;10.90;;
4385;SDS011;2207;53.540;10.042;2022-08-19T13:46:47;10.90;;;9.80;;
4385;SDS011;2207;53.540;10.042;2022-08-19T13:49:15;11.30;;;10.10;;
4385;SDS011;2207;53.540;10.042;2022-08-19T13:51:42;9.27;;;8.37;;
4385;SDS011;2207;53.540;10.042;2022-08-19T13:54:10;15.03;;;10.27;;
4385;SDS011;2207;53.540;10.042;2022-08-19T13:56:41;10.57;;;9.40;;
4385;SDS011;2207;53.540;10.042;2022-08-19T13:59:09;11.20;;;10.13;;
4385;SDS011;2207;53.540;10.042;2022-08-19T14:01:37;13.10;;;9.60;;
4385;SDS011;2207;53.540;10.042;2022-08-19T14:04:04;10.77;;;9.17;;
4385;SDS011;2207;53.540;10.042;2022-08-19T14:06:31;10.73;;;9.13;;
4385;SDS011;2207;53.540;10.042;2022-08-19T14:09:00;13.10;;;10.30;;
4385;SDS011;2207;53.540;10.042;2022-08-19T14:11:27;12.03;;;10.00;;
4385;SDS011;2207;53.540;10.042;2022-08-19T14:13:56;12.33;;;10.07;;
4385;SDS011;2207;53.540;10.042;2022-08-19T14:16:23;14.73;;;11.20;;
4385;SDS011;2207;53.540;10.042;2022-08-19T14:18:52;12.00;;;10.73;;
4385;SDS011;2207;53.540;10.042;2022-08-19T14:21:20;15.97;;;11.90;;
4385;SDS011;2207;53.540;10.042;2022-08-19T14:23:48;12.47;;;10.10;;
4385;SDS011;2207;53.540;10.042;2022-08-19T14:26:16;10.97;;;9.73;;
4385;SDS011;2207;53.540;10.042;2022-08-19T14:28:44;13.47;;;10.17;;
4385;SDS011;2207;53.540;10.042;2022-08-19T14:31:14;15.17;;;10.40;;
4385;SDS011;2207;53.540;10.042;2022-08-19T14:33:43;13.17;;;10.60;;
4385;SDS011;2207;53.540;10.042;2022-08-19T14:36:10;11.93;;;10.70;;
4385;SDS011;2207;53.540;10.042;2022-08-19T14:38:38;11.77;;;10.40;;
4385;SDS011;2207;53.540;10.042;2022-08-19T14:41:09;13.30;;;9.67;;
4385;SDS011;2207;53.540;10.042;2022-08-19T14:43:38;14.80;;;13.30;;
4385;SDS011;2207;53.540;10.042;2022-08-19T14:46:07;12.43;;;11.03;;
4385;SDS011;2207;53.540;10.042;2022-08-19T14:48:37;12.33;;;11.13;;
4385;SDS011;2207;53.540;10.042;2022-08-19T14:51:04;11.50;;;10.00;;
4385;SDS011;2207;53.540;10.042;2022-08-19T14:53:32;15.77;;;12.20;;
4385;SDS011;2207;53.540;10.042;2022-08-19T14:56:00;12.10;;;10.00;;
4385;SDS011;2207;53.540;10.042;2022-08-19T14:58:28;11.00;;;9.90;;
4385;SDS011;2207;53.540;10.042;2022-08-19T15:00:55;15.83;;;10.83;;